Time;durP1;ratioP1;P1;durP2;ratioP2;P2;SDS_P1;SDS_P2;PMS_P1;PMS_P2;Temp;Humidity;BMP_temperature;BMP_pressure;BME280_temperature;BME280_humidity;BME280_pressure;Samples;Min_cycle;Max_cycle;Signal;HPM_P1;HPM_P2
2023/01/27 00:01:17;;;;;;;3.55;2.25;;;;;;;;;;10440067;28;20071;-84
2023/01/27 00:06:21;;;;;;;3.47;2.30;;;;;;;;;;10432521;28;20048;-85
2023/01/27 00:16:46;;;;;;;3.00;2.00;;;;;;;;;;10431944;28;20049;-84
2023/01/27 00:27:11;;;;;;;2.92;2.10;;;;;;;;;;10421597;28;20048;-84
2023/01/27 00:37:36;;;;;;;3.53;2.42;;;;;;;;;;10422946;28;20075;-84
2023/01/27 00:42:42;;;;;;;2.88;2.22;;;;;;;;;;10432501;28;20068;-84
2023/01/27 00:47:48;;;;;;;2.70;1.98;;;;;;;;;;10413666;28;20552;-84
2023/01/27 00:52:52;;;;;;;3.47;2.22;;;;;;;;;;10424376;28;20052;-84
2023/01/27 00:57:55;;;;;;;2.15;1.73;;;;;;;;;;10414547;28;20033;-84
2023/01/27 01:03:00;;;;;;;3.30;2.25;;;;;;;;;;10411208;28;20048;-83
2023/01/27 01:08:03;;;;;;;4.40;2.55;;;;;;;;;;10417287;28;20041;-84
2023/01/27 01:13:08;;;;;;;3.33;1.90;;;;;;;;;;10434068;28;20623;-86
2023/01/27 01:18:14;;;;;;;4.00;2.58;;;;;;;;;;10434828;28;20073;-86
2023/01/27 01:23:18;;;;;;;3.03;2.42;;;;;;;;;;10429570;28;20061;-85
2023/01/27 01:28:22;;;;;;;3.35;2.35;;;;;;;;;;10414923;28;20043;-84
2023/01/27 01:33:28;;;;;;;5.22;2.33;;;;;;;;;;10432322;28;20415;-84
2023/01/27 01:38:31;;;;;;;2.70;2.08;;;;;;;;;;10412715;28;20391;-85
2023/01/27 01:43:35;;;;;;;3.25;2.13;;;;;;;;;;10427170;28;20072;-84
2023/01/27 01:48:42;;;;;;;5.10;2.90;;;;;;;;;;10413847;28;20048;-84
2023/01/27 01:53:50;;;;;;;5.40;3.47;;;;;;;;;;10418785;28;20041;-84
2023/01/27 01:58:56;;;;;;;5.03;3.13;;;;;;;;;;10409888;28;20049;-84
2023/01/27 02:04:05;;;;;;;4.75;2.85;;;;;;;;;;10416254;28;20049;-84
2023/01/27 02:09:11;;;;;;;4.18;2.72;;;;;;;;;;10414032;28;20090;-84
2023/01/27 02:14:17;;;;;;;4.60;2.80;;;;;;;;;;10415075;28;20557;-84
2023/01/27 02:19:28;;;;;;;2.93;2.43;;;;;;;;;;10421974;28;20413;-84
2023/01/27 02:24:39;;;;;;;4.18;2.80;;;;;;;;;;10367841;28;20292;-85
2023/01/27 02:29:48;;;;;;;5.47;3.10;;;;;;;;;;10390661;28;20056;-87
2023/01/27 02:34:53;;;;;;;4.05;3.00;;;;;;;;;;10355515;28;20067;-84
2023/01/27 02:39:59;;;;;;;3.33;2.70;;;;;;;;;;10372987;28;20095;-85
2023/01/27 02:45:08;;;;;;;5.35;3.17;;;;;;;;;;10413787;28;20065;-83
2023/01/27 02:50:12;;;;;;;;;;;;;;;;;;10404535;28;20068;-84
2023/01/27 02:55:16;;;;;;;3.70;2.42;;;;;;;;;;10420230;28;20027;-86
2023/01/27 03:00:21;;;;;;;3.38;2.40;;;;;;;;;;10423775;28;20456;-85
2023/01/27 03:05:25;;;;;;;3.03;2.33;;;;;;;;;;10430494;28;20037;-88
2023/01/27 03:10:32;;;;;;;4.05;2.65;;;;;;;;;;10428039;28;20120;-86
2023/01/27 03:21:02;;;;;;;3.72;2.92;;;;;;;;;;10398791;28;20060;-86
2023/01/27 03:26:08;;;;;;;3.42;2.78;;;;;;;;;;10386599;28;20061;-84
2023/01/27 03:31:19;;;;;;;3.10;2.65;;;;;;;;;;10384765;28;20061;-85
2023/01/27 03:47:18;;;;;;;2.78;2.10;;;;;;;;;;10422718;28;20041;-85
2023/01/27 03:52:22;;;;;;;;;;;;;;;;;;10428355;28;20062;-85
2023/01/27 03:57:28;;;;;;;2.72;2.03;;;;;;;;;;10426147;28;20599;-86
2023/01/27 04:07:55;;;;;;;2.92;2.10;;;;;;;;;;10420757;28;20041;-86
2023/01/27 04:12:59;;;;;;;3.50;2.10;;;;;;;;;;10436217;28;20055;-87
2023/01/27 04:18:04;;;;;;;2.00;1.45;;;;;;;;;;10442715;28;20055;-83
2023/01/27 04:23:07;;;;;;;1.70;1.33;;;;;;;;;;10440906;28;20044;-86
2023/01/27 04:28:11;;;;;;;1.70;1.27;;;;;;;;;;10426632;28;20051;-86
2023/01/27 04:33:17;;;;;;;1.40;1.30;;;;;;;;;;10423449;28;20128;-84
2023/01/27 04:38:21;;;;;;;1.50;1.40;;;;;;;;;;10417052;28;20078;-83
2023/01/27 04:43:25;;;;;;;2.30;1.60;;;;;;;;;;10415300;28;20056;-84
2023/01/27 04:48:30;;;;;;;2.10;1.52;;;;;;;;;;10415907;28;20055;-84
2023/01/27 04:53:33;;;;;;;1.38;1.20;;;;;;;;;;10417829;28;20045;-84
2023/01/27 04:58:37;;;;;;;1.10;1.00;;;;;;;;;;10425032;28;20049;-82
2023/01/27 05:03:42;;;;;;;2.40;1.38;;;;;;;;;;10416345;28;20533;-84
2023/01/27 05:08:45;;;;;;;1.30;1.15;;;;;;;;;;10418506;28;20420;-84
2023/01/27 05:13:49;;;;;;;1.85;1.05;;;;;;;;;;10421235;28;20053;-89
2023/01/27 05:18:55;;;;;;;2.05;1.60;;;;;;;;;;10451927;28;20037;-88
2023/01/27 05:23:58;;;;;;;3.58;1.50;;;;;;;;;;10440164;28;20045;-85
2023/01/27 05:29:02;;;;;;;1.40;1.17;;;;;;;;;;10447575;28;20087;-88
2023/01/27 05:34:08;;;;;;;2.00;1.10;;;;;;;;;;10428449;28;20052;-85
2023/01/27 05:39:12;;;;;;;1.70;1.58;;;;;;;;;;10428812;28;20078;-85
2023/01/27 05:44:16;;;;;;;1.83;1.35;;;;;;;;;;10427658;28;20048;-85
2023/01/27 05:49:21;;;;;;;1.23;1.13;;;;;;;;;;10430729;28;20398;-86
2023/01/27 05:54:25;;;;;;;1.23;1.13;;;;;;;;;;10441723;28;20471;-85
2023/01/27 05:59:28;;;;;;;1.33;1.25;;;;;;;;;;10447650;28;20362;-85
2023/01/27 06:04:33;;;;;;;1.50;1.27;;;;;;;;;;10425200;28;20045;-86
2023/01/27 06:09:37;;;;;;;1.10;0.98;;;;;;;;;;10422132;28;20037;-88
2023/01/27 06:14:41;;;;;;;1.50;1.25;;;;;;;;;;10422416;28;20110;-88
2023/01/27 06:19:45;;;;;;;1.20;1.02;;;;;;;;;;10424382;28;20141;-84
2023/01/27 06:24:49;;;;;;;1.20;1.10;;;;;;;;;;10421450;28;20044;-85
2023/01/27 06:29:52;;;;;;;0.93;0.90;;;;;;;;;;10424805;28;20052;-84
2023/01/27 06:34:57;;;;;;;1.40;1.02;;;;;;;;;;10419967;28;20494;-84
2023/01/27 06:40:00;;;;;;;1.20;1.02;;;;;;;;;;10413257;28;20414;-83
2023/01/27 06:45:16;;;;;;;1.63;1.23;;;;;;;;;;10422865;28;20527;-84
2023/01/27 06:50:21;;;;;;;2.08;1.73;;;;;;;;;;10421535;28;20052;-83
2023/01/27 06:55:26;;;;;;;2.22;1.45;;;;;;;;;;10423016;28;20045;-86
2023/01/27 07:00:29;;;;;;;3.38;2.22;;;;;;;;;;10417532;28;20041;-84
2023/01/27 07:05:34;;;;;;;2.70;2.00;;;;;;;;;;10424277;28;20486;-87
2023/01/27 07:10:38;;;;;;;3.92;2.50;;;;;;;;;;10432089;28;20041;-86
2023/01/27 07:15:45;;;;;;;6.43;2.50;;;;;;;;;;10431954;28;20045;-86
2023/01/27 07:20:50;;;;;;;3.45;2.47;;;;;;;;;;10432053;28;20072;-89
2023/01/27 07:25:53;;;;;;;3.55;2.47;;;;;;;;;;10425445;28;20036;-86
2023/01/27 07:31:01;;;;;;;6.22;2.83;;;;;;;;;;10427236;28;20037;-85
2023/01/27 07:36:08;;;;;;;3.78;2.58;;;;;;;;;;10420914;28;20040;-87
2023/01/27 07:41:11;;;;;;;2.90;2.13;;;;;;;;;;10430617;28;20390;-84
2023/01/27 07:46:15;;;;;;;4.88;2.40;;;;;;;;;;10430395;28;20057;-84
2023/01/27 07:51:20;;;;;;;3.50;2.50;;;;;;;;;;10444020;28;20037;-85
2023/01/27 07:56:28;;;;;;;4.88;2.83;;;;;;;;;;10423620;28;20045;-86
2023/01/27 08:01:33;;;;;;;2.83;2.15;;;;;;;;;;10442428;28;20411;-87
2023/01/27 08:06:39;;;;;;;4.20;2.30;;;;;;;;;;10429156;28;20052;-88
2023/01/27 08:11:43;;;;;;;6.82;3.45;;;;;;;;;;10426700;28;20037;-87
2023/01/27 08:16:47;;;;;;;3.80;2.75;;;;;;;;;;10428260;28;20116;-87
2023/01/27 08:21:52;;;;;;;3.28;2.88;;;;;;;;;;10446604;28;20041;-87
2023/01/27 08:26:56;;;;;;;2.83;1.83;;;;;;;;;;10438119;28;20098;-88
2023/01/27 08:31:59;;;;;;;2.55;1.92;;;;;;;;;;10435355;28;20080;-88
2023/01/27 08:37:04;;;;;;;1.45;1.23;;;;;;;;;;10428311;28;20045;-90
2023/01/27 08:42:08;;;;;;;2.05;1.38;;;;;;;;;;10420575;28;20087;-88
2023/01/27 08:47:11;;;;;;;1.65;1.30;;;;;;;;;;10421348;28;20523;-87
2023/01/27 08:52:16;;;;;;;4.07;2.50;;;;;;;;;;10430163;28;20052;-88
2023/01/27 08:57:20;;;;;;;3.55;1.92;;;;;;;;;;10432984;28;20040;-86
2023/01/27 09:02:23;;;;;;;2.17;1.50;;;;;;;;;;10428273;28;20040;-88
2023/01/27 09:07:28;;;;;;;2.90;1.67;;;;;;;;;;10424809;28;20049;-90
2023/01/27 09:12:32;;;;;;;3.88;2.03;;;;;;;;;;10432323;28;20080;-87
2023/01/27 09:17:36;;;;;;;12.63;6.13;;;;;;;;;;10425645;28;20391;-88
2023/01/27 09:22:42;;;;;;;6.93;4.05;;;;;;;;;;10441989;28;20519;-87
2023/01/27 09:27:46;;;;;;;7.28;3.45;;;;;;;;;;10427520;28;20745;-87
2023/01/27 09:32:49;;;;;;;5.97;3.28;;;;;;;;;;10444474;28;20127;-87
2023/01/27 09:37:57;;;;;;;4.30;2.90;;;;;;;;;;10437655;28;20124;-90
2023/01/27 09:43:29;;;;;;;2.65;1.77;;;;;;;;;;10426471;28;20047;-87
2023/01/27 09:48:58;;;;;;;2.85;1.80;;;;;;;;;;10416414;28;20053;-84
2023/01/27 09:54:24;;;;;;;1.80;1.40;;;;;;;;;;10412347;28;20068;-84
2023/01/27 09:59:42;;;;;;;1.77;1.48;;;;;;;;;;10421823;28;20125;-84
2023/01/27 10:05:08;;;;;;;1.88;1.35;;;;;;;;;;10422261;28;20049;-85
2023/01/27 10:10:26;;;;;;;1.10;1.00;;;;;;;;;;10414600;28;20066;-84
2023/01/27 10:15:44;;;;;;;1.13;1.00;;;;;;;;;;10431698;28;20049;-84
2023/01/27 10:20:54;;;;;;;1.25;1.05;;;;;;;;;;10420861;28;20413;-84
2023/01/27 10:26:09;;;;;;;1.08;0.93;;;;;;;;;;10422832;28;20047;-84
2023/01/27 10:31:21;;;;;;;1.55;1.10;;;;;;;;;;10431203;28;20061;-90
2023/01/27 10:36:29;;;;;;;1.15;0.90;;;;;;;;;;10439368;28;20072;-84
2023/01/27 10:41:48;;;;;;;1.48;1.33;;;;;;;;;;10429956;28;20033;-84
2023/01/27 10:46:59;;;;;;;1.58;1.20;;;;;;;;;;10429824;28;20052;-84
2023/01/27 10:52:09;;;;;;;1.10;1.00;;;;;;;;;;10432248;28;20091;-91
2023/01/27 10:57:19;;;;;;;2.30;1.50;;;;;;;;;;10447097;28;20045;-90
2023/01/27 11:02:29;;;;;;;1.65;1.20;;;;;;;;;;10434880;28;20098;-84
2023/01/27 11:07:38;;;;;;;1.10;1.00;;;;;;;;;;10445119;28;20101;-85
2023/01/27 11:12:47;;;;;;;0.90;0.90;;;;;;;;;;10424949;28;20036;-84
2023/01/27 11:17:55;;;;;;;1.20;1.10;;;;;;;;;;10430715;28;20061;-86
2023/01/27 11:23:03;;;;;;;0.95;0.88;;;;;;;;;;10434535;28;20084;-87
2023/01/27 11:28:20;;;;;;;1.77;1.25;;;;;;;;;;10436407;28;20044;-86
2023/01/27 11:33:29;;;;;;;1.35;0.90;;;;;;;;;;10426052;28;20047;-85
2023/01/27 11:38:33;;;;;;;1.10;1.00;;;;;;;;;;10425469;28;20045;-85
2023/01/27 11:43:39;;;;;;;1.63;1.20;;;;;;;;;;10427756;28;20107;-85
2023/01/27 11:48:44;;;;;;;0.73;0.73;;;;;;;;;;10423198;28;20048;-84
2023/01/27 11:53:51;;;;;;;1.30;1.10;;;;;;;;;;10443098;28;20048;-85
2023/01/27 11:59:03;;;;;;;1.20;1.10;;;;;;;;;;10426218;28;20120;-85
2023/01/27 12:04:12;;;;;;;1.48;1.10;;;;;;;;;;10430598;28;20088;-85
2023/01/27 12:09:32;;;;;;;0.80;0.80;;;;;;;;;;10429080;28;20037;-87
2023/01/27 12:14:37;;;;;;;0.95;0.82;;;;;;;;;;10431822;28;20048;-87
2023/01/27 12:19:47;;;;;;;0.70;0.70;;;;;;;;;;10427137;28;20515;-85
2023/01/27 12:24:53;;;;;;;0.68;0.68;;;;;;;;;;10423183;28;20055;-85
2023/01/27 12:30:05;;;;;;;0.80;0.70;;;;;;;;;;10423873;28;20044;-85
2023/01/27 12:35:21;;;;;;;0.70;0.70;;;;;;;;;;10423181;28;20040;-85
2023/01/27 12:40:26;;;;;;;0.50;0.50;;;;;;;;;;10422176;28;20041;-86
2023/01/27 12:45:33;;;;;;;0.70;0.70;;;;;;;;;;10435315;28;20052;-87
2023/01/27 12:50:39;;;;;;;0.98;0.82;;;;;;;;;;10431240;28;20045;-87
2023/01/27 12:55:46;;;;;;;0.87;0.70;;;;;;;;;;10444415;28;20565;-84
2023/01/27 13:00:51;;;;;;;0.75;0.75;;;;;;;;;;10417106;28;20279;-85
2023/01/27 13:05:57;;;;;;;1.88;1.10;;;;;;;;;;10446061;28;20127;-85
2023/01/27 13:11:03;;;;;;;0.90;0.90;;;;;;;;;;10419357;28;20387;-85
2023/01/27 13:16:17;;;;;;;0.98;0.70;;;;;;;;;;10434012;28;20087;-87
2023/01/27 13:21:25;;;;;;;1.58;1.02;;;;;;;;;;10417001;28;20041;-88
2023/01/27 13:26:31;;;;;;;0.80;0.52;;;;;;;;;;10424642;28;20127;-88
2023/01/27 13:31:43;;;;;;;0.75;0.50;;;;;;;;;;10425957;28;20490;-87
2023/01/27 13:36:52;;;;;;;0.60;0.60;;;;;;;;;;10424133;28;20106;-87
2023/01/27 13:42:14;;;;;;;0.90;0.70;;;;;;;;;;10434112;28;20033;-87
2023/01/27 13:47:27;;;;;;;0.70;0.70;;;;;;;;;;10421344;28;20323;-85
2023/01/27 13:52:31;;;;;;;0.88;0.80;;;;;;;;;;10434087;28;20040;-85
2023/01/27 13:57:52;;;;;;;0.60;0.60;;;;;;;;;;10419669;28;20080;-85
2023/01/27 14:03:33;;;;;;;0.68;0.68;;;;;;;;;;10412148;28;20132;-87
2023/01/27 14:09:01;;;;;;;0.80;0.80;;;;;;;;;;10430802;28;20048;-87
2023/01/27 14:14:29;;;;;;;1.17;1.08;;;;;;;;;;10427784;28;20103;-85
2023/01/27 14:19:47;;;;;;;0.68;0.68;;;;;;;;;;10446297;28;20036;-86
2023/01/27 14:24:56;;;;;;;0.60;0.60;;;;;;;;;;10430065;28;20080;-85
2023/01/27 14:30:08;;;;;;;1.00;0.90;;;;;;;;;;10422485;28;20045;-85
2023/01/27 14:35:26;;;;;;;0.60;0.60;;;;;;;;;;10444498;28;20056;-85
2023/01/27 14:40:36;;;;;;;0.50;0.50;;;;;;;;;;10444505;28;20524;-84
2023/01/27 14:45:47;;;;;;;0.50;0.50;;;;;;;;;;10427468;28;20067;-85
2023/01/27 14:51:11;;;;;;;0.75;0.60;;;;;;;;;;10431483;28;20044;-86
2023/01/27 14:56:29;;;;;;;0.47;0.47;;;;;;;;;;10450426;28;20064;-87
2023/01/27 15:01:41;;;;;;;0.60;0.60;;;;;;;;;;10436568;28;20079;-90
2023/01/27 15:06:55;;;;;;;0.50;0.50;;;;;;;;;;10436429;28;20051;-87
2023/01/27 15:12:16;;;;;;;0.60;0.60;;;;;;;;;;10438421;28;20040;-87
2023/01/27 15:17:34;;;;;;;0.60;0.60;;;;;;;;;;10438840;28;20079;-90
2023/01/27 15:22:52;;;;;;;1.23;1.10;;;;;;;;;;10437280;28;20168;-90
2023/01/27 15:27:59;;;;;;;0.75;0.75;;;;;;;;;;10428875;28;20090;-87
2023/01/27 15:33:05;;;;;;;0.60;0.60;;;;;;;;;;10429249;28;20065;-90
2023/01/27 15:38:31;;;;;;;0.80;0.80;;;;;;;;;;10446243;28;20037;-90
2023/01/27 15:44:04;;;;;;;0.93;0.70;;;;;;;;;;10430736;28;20462;-87
2023/01/27 15:49:17;;;;;;;0.50;0.50;;;;;;;;;;10428774;28;20049;-87
2023/01/27 15:54:26;;;;;;;0.40;0.40;;;;;;;;;;10435345;28;20045;-85
2023/01/27 15:59:32;;;;;;;0.82;0.60;;;;;;;;;;10416683;28;20048;-85
2023/01/27 16:04:36;;;;;;;0.70;0.70;;;;;;;;;;10427471;28;20048;-87
2023/01/27 16:09:45;;;;;;;0.50;0.50;;;;;;;;;;10436809;28;20041;-87
2023/01/27 16:14:50;;;;;;;0.60;0.60;;;;;;;;;;10444817;28;20037;-89
2023/01/27 16:20:04;;;;;;;0.50;0.50;;;;;;;;;;10428326;28;20444;-88
2023/01/27 16:25:22;;;;;;;0.50;0.50;;;;;;;;;;10424571;28;20037;-87
2023/01/27 16:30:28;;;;;;;0.98;0.52;;;;;;;;;;10376359;28;20054;-83
2023/01/27 16:35:34;;;;;;;0.50;0.50;;;;;;;;;;10376550;28;20128;-83
2023/01/27 16:40:39;;;;;;;0.50;0.50;;;;;;;;;;10362941;28;20053;-83
2023/01/27 16:45:46;;;;;;;0.50;0.50;;;;;;;;;;10375710;28;20136;-82
2023/01/27 16:50:51;;;;;;;0.95;0.90;;;;;;;;;;10378303;28;20049;-83
2023/01/27 16:55:58;;;;;;;1.00;0.90;;;;;;;;;;10374332;28;20136;-83
2023/01/27 17:01:02;;;;;;;0.80;0.63;;;;;;;;;;10376825;28;20137;-83
2023/01/27 17:06:09;;;;;;;0.55;0.55;;;;;;;;;;10377370;28;20042;-85
2023/01/27 17:11:23;;;;;;;0.52;0.52;;;;;;;;;;10374929;28;20060;-83
2023/01/27 17:16:29;;;;;;;0.88;0.88;;;;;;;;;;10390195;28;20125;-84
2023/01/27 17:21:37;;;;;;;0.90;0.70;;;;;;;;;;10391190;28;20597;-84
2023/01/27 17:26:43;;;;;;;0.63;0.63;;;;;;;;;;10398069;28;20041;-87
2023/01/27 17:31:46;;;;;;;;;;;;;;;;;;10457586;28;20108;-87
2023/01/27 17:37:07;;;;;;;0.80;0.80;;;;;;;;;;10457401;28;19921;-83
2023/01/27 17:42:16;;;;;;;0.80;0.80;;;;;;;;;;10455567;28;20051;-85
2023/01/27 17:47:21;;;;;;;0.70;0.70;;;;;;;;;;10447900;28;20033;-86
2023/01/27 17:52:26;;;;;;;0.85;0.85;;;;;;;;;;10455137;28;20420;-86
2023/01/27 17:57:34;;;;;;;0.70;0.70;;;;;;;;;;10462667;28;20098;-83
2023/01/27 18:02:48;;;;;;;1.17;1.08;;;;;;;;;;10455055;28;20041;-85
2023/01/27 18:07:52;;;;;;;1.15;0.93;;;;;;;;;;10470999;28;20033;-84
2023/01/27 18:13:10;;;;;;;1.88;1.17;;;;;;;;;;10431011;28;20524;-83
2023/01/27 18:18:22;;;;;;;1.90;1.63;;;;;;;;;;10453592;28;20051;-83
2023/01/27 18:23:29;;;;;;;1.48;1.27;;;;;;;;;;10454712;28;22918;-83
2023/01/27 18:28:37;;;;;;;1.42;1.20;;;;;;;;;;10467253;28;20497;-82
2023/01/27 18:33:40;;;;;;;1.08;1.00;;;;;;;;;;10472277;28;20457;-82
2023/01/27 18:38:47;;;;;;;0.90;0.90;;;;;;;;;;10453430;28;20049;-82
2023/01/27 18:43:54;;;;;;;1.20;1.05;;;;;;;;;;10453584;28;20041;-83
2023/01/27 18:49:00;;;;;;;1.10;1.00;;;;;;;;;;10440119;28;20049;-83
2023/01/27 18:54:03;;;;;;;1.03;1.00;;;;;;;;;;10439366;28;20037;-80
2023/01/27 18:59:12;;;;;;;1.50;1.15;;;;;;;;;;10443031;28;20037;-83
2023/01/27 19:04:15;;;;;;;1.77;1.27;;;;;;;;;;10463823;28;20044;-82
2023/01/27 19:09:19;;;;;;;1.73;1.10;;;;;;;;;;10447381;28;20051;-81
2023/01/27 19:14:24;;;;;;;1.30;1.05;;;;;;;;;;10447444;28;20498;-81
2023/01/27 19:19:27;;;;;;;0.98;0.98;;;;;;;;;;10446842;28;20391;-84
2023/01/27 19:24:31;;;;;;;0.98;0.98;;;;;;;;;;10448798;28;20064;-83
2023/01/27 19:29:36;;;;;;;1.17;1.00;;;;;;;;;;10448432;28;20136;-86
2023/01/27 19:34:39;;;;;;;1.20;1.10;;;;;;;;;;10429894;28;20055;-83
2023/01/27 19:39:43;;;;;;;1.45;1.15;;;;;;;;;;10452600;28;20043;-81
2023/01/27 19:44:48;;;;;;;1.25;1.15;;;;;;;;;;10446633;28;20405;-81
2023/01/27 19:49:52;;;;;;;2.00;1.55;;;;;;;;;;10446152;28;20045;-83
2023/01/27 19:54:55;;;;;;;1.33;1.23;;;;;;;;;;10455118;28;20071;-81
2023/01/27 20:00:00;;;;;;;1.48;1.38;;;;;;;;;;10446100;28;20107;-83
2023/01/27 20:05:14;;;;;;;1.30;1.20;;;;;;;;;;10447792;28;20043;-84
2023/01/27 20:10:19;;;;;;;1.20;1.10;;;;;;;;;;10447781;28;20087;-84
2023/01/27 20:15:26;;;;;;;1.00;0.93;;;;;;;;;;10451148;28;20563;-83
2023/01/27 20:20:29;;;;;;;2.03;1.70;;;;;;;;;;10426267;28;20056;-83
2023/01/27 20:25:33;;;;;;;1.48;1.38;;;;;;;;;;10439116;28;20037;-84
2023/01/27 20:30:38;;;;;;;1.77;1.23;;;;;;;;;;10447331;28;20409;-83
2023/01/27 20:35:42;;;;;;;1.67;1.15;;;;;;;;;;10450323;28;20083;-84
2023/01/27 20:40:54;;;;;;;1.50;1.33;;;;;;;;;;10444684;28;20577;-84
2023/01/27 20:46:03;;;;;;;1.30;1.20;;;;;;;;;;10450096;28;20045;-83
2023/01/27 20:51:09;;;;;;;1.50;1.40;;;;;;;;;;10450587;28;20037;-82
2023/01/27 20:56:15;;;;;;;1.20;1.10;;;;;;;;;;10461265;28;20053;-83
2023/01/27 21:01:22;;;;;;;1.17;1.08;;;;;;;;;;10455718;28;20577;-84
2023/01/27 21:06:25;;;;;;;;;;;;;;;;;;10457819;28;20044;-84
2023/01/27 21:11:28;;;;;;;1.00;1.00;;;;;;;;;;10436927;28;20486;-82
2023/01/27 21:16:33;;;;;;;0.93;0.90;;;;;;;;;;10458140;28;20047;-84
2023/01/27 21:21:37;;;;;;;0.93;0.90;;;;;;;;;;10446034;28;20130;-84
2023/01/27 21:26:41;;;;;;;0.80;0.80;;;;;;;;;;10447865;28;20045;-84
2023/01/27 21:31:45;;;;;;;0.90;0.90;;;;;;;;;;10453202;28;20049;-84
2023/01/27 21:36:49;;;;;;;1.30;1.13;;;;;;;;;;10464696;28;20120;-82
2023/01/27 21:47:20;;;;;;;0.98;0.75;;;;;;;;;;10388291;28;20073;-85
2023/01/27 21:52:24;;;;;;;1.10;1.00;;;;;;;;;;10448911;28;20037;-84
2023/01/27 21:57:28;;;;;;;1.08;0.98;;;;;;;;;;10447470;28;20037;-84
2023/01/27 22:02:33;;;;;;;1.20;1.10;;;;;;;;;;10446951;28;20045;-83
2023/01/27 22:07:37;;;;;;;1.10;1.00;;;;;;;;;;10446762;28;20044;-85
2023/01/27 22:12:41;;;;;;;0.98;0.98;;;;;;;;;;10447812;28;20044;-87
2023/01/27 22:17:46;;;;;;;0.75;0.75;;;;;;;;;;10464353;28;20044;-85
2023/01/27 22:22:51;;;;;;;0.75;0.75;;;;;;;;;;10455127;28;20044;-86
2023/01/27 22:27:55;;;;;;;0.90;0.90;;;;;;;;;;10463489;28;20087;-86
2023/01/27 22:33:00;;;;;;;0.93;0.90;;;;;;;;;;10449256;28;20136;-89
2023/01/27 22:38:03;;;;;;;0.73;0.73;;;;;;;;;;10440216;28;20037;-82
2023/01/27 22:43:09;;;;;;;1.02;0.88;;;;;;;;;;10446572;28;20059;-82
2023/01/27 22:48:14;;;;;;;1.13;1.02;;;;;;;;;;10435010;28;20059;-82
2023/01/27 22:53:17;;;;;;;0.98;0.90;;;;;;;;;;10459205;28;20604;-82
2023/01/27 22:58:21;;;;;;;1.05;0.93;;;;;;;;;;10443911;28;20072;-82
2023/01/27 23:03:26;;;;;;;0.90;0.90;;;;;;;;;;10435746;28;20232;-81
2023/01/27 23:08:29;;;;;;;2.10;1.02;;;;;;;;;;10435737;28;20714;-82
2023/01/27 23:13:35;;;;;;;1.20;0.95;;;;;;;;;;10444125;28;20764;-82
2023/01/27 23:18:40;;;;;;;1.30;1.20;;;;;;;;;;10461353;28;20429;-82
2023/01/27 23:23:44;;;;;;;1.30;1.13;;;;;;;;;;10443874;28;20506;-83
2023/01/27 23:28:47;;;;;;;1.17;1.08;;;;;;;;;;10459215;28;20139;-82
2023/01/27 23:33:52;;;;;;;0.95;0.93;;;;;;;;;;10441629;28;20055;-83
2023/01/27 23:38:55;;;;;;;1.00;1.00;;;;;;;;;;10443705;28;20049;-82
2023/01/27 23:43:59;;;;;;;1.10;1.00;;;;;;;;;;10426701;28;20041;-82
2023/01/27 23:49:04;;;;;;;1.10;1.00;;;;;;;;;;10442292;28;20638;-81
2023/01/27 23:54:07;;;;;;;1.10;1.00;;;;;;;;;;10436135;28;20402;-82
2023/01/27 23:59:12;;;;;;;1.10;1.00;;;;;;;;;;10443622;28;20124;-81
